Penwell, Texas
Current Conditions -  °F | °C
As of 6:53 AM on Thursday 18 Dec 2014 (Local Time) from KODO Reporting Station
Clear Clear  
Wind Chill: 38°   Ceiling: Unl
Heat Index: 43°   Visibility: 10mi
Dew Point: 31°   Wind: 8mph
Humidity: 62%   Direction: 290°WNW
Pressure: 30.1"   Gusts: NA
Location:  31.74°N, 102.59°W
Report Text: KODO 181253Z AUTO 29007KT 10SM CLR 06/M01 A3010 RMK AO2 SLP176 T00611006 $
Loading
Personal Weather Stations






























Interactive Weather Map New forecast layout! Learn more

10-Day Weather Forecast

Advertisements
Track Severe Weather on mobile